sensor_id;sensor_type;location;lat;lon;timestamp;temperature;humidity
20866;DHT22;10593;48.398;10.698;2023-05-07T00:01:56;18.40;50.60
20866;DHT22;10593;48.398;10.698;2023-05-07T00:04:22;18.40;50.70
20866;DHT22;10593;48.398;10.698;2023-05-07T00:06:47;18.40;50.70
20866;DHT22;10593;48.398;10.698;2023-05-07T00:09:13;18.40;50.70
20866;DHT22;10593;48.398;10.698;2023-05-07T00:11:39;18.40;50.70
20866;DHT22;10593;48.398;10.698;2023-05-07T00:14:05;18.30;50.60
20866;DHT22;10593;48.398;10.698;2023-05-07T00:16:31;18.30;50.70
20866;DHT22;10593;48.398;10.698;2023-05-07T00:18:57;18.30;50.80
20866;DHT22;10593;48.398;10.698;2023-05-07T00:21:23;18.30;50.90
20866;DHT22;10593;48.398;10.698;2023-05-07T00:23:52;18.30;50.80
20866;DHT22;10593;48.398;10.698;2023-05-07T00:26:18;18.30;50.90
20866;DHT22;10593;48.398;10.698;2023-05-07T00:28:44;18.30;50.90
20866;DHT22;10593;48.398;10.698;2023-05-07T00:31:10;18.20;51.50
20866;DHT22;10593;48.398;10.698;2023-05-07T00:33:35;18.20;50.90
20866;DHT22;10593;48.398;10.698;2023-05-07T00:36:01;18.20;50.90
20866;DHT22;10593;48.398;10.698;2023-05-07T00:38:27;18.20;51.00
20866;DHT22;10593;48.398;10.698;2023-05-07T00:40:53;18.20;50.90
20866;DHT22;10593;48.398;10.698;2023-05-07T00:43:18;18.20;50.90
20866;DHT22;10593;48.398;10.698;2023-05-07T00:45:44;18.10;50.90
20866;DHT22;10593;48.398;10.698;2023-05-07T00:48:10;18.10;50.80
20866;DHT22;10593;48.398;10.698;2023-05-07T00:50:35;18.10;50.90
20866;DHT22;10593;48.398;10.698;2023-05-07T00:53:01;18.10;50.70
20866;DHT22;10593;48.398;10.698;2023-05-07T00:55:28;18.10;50.80
20866;DHT22;10593;48.398;10.698;2023-05-07T00:57:54;18.00;50.90
20866;DHT22;10593;48.398;10.698;2023-05-07T01:00:19;18.00;51.00
20866;DHT22;10593;48.398;10.698;2023-05-07T01:02:45;18.00;51.20
20866;DHT22;10593;48.398;10.698;2023-05-07T01:05:14;17.90;51.10
20866;DHT22;10593;48.398;10.698;2023-05-07T01:07:42;18.00;51.20
20866;DHT22;10593;48.398;10.698;2023-05-07T01:10:09;17.90;51.10
20866;DHT22;10593;48.398;10.698;2023-05-07T01:12:37;17.90;51.10
20866;DHT22;10593;48.398;10.698;2023-05-07T01:15:06;17.90;51.20
20866;DHT22;10593;48.398;10.698;2023-05-07T01:17:35;17.80;51.00
20866;DHT22;10593;48.398;10.698;2023-05-07T01:20:03;17.80;51.00
20866;DHT22;10593;48.398;10.698;2023-05-07T01:22:31;17.80;51.10
20866;DHT22;10593;48.398;10.698;2023-05-07T01:24:59;17.80;51.10
20866;DHT22;10593;48.398;10.698;2023-05-07T01:27:27;17.80;51.10
20866;DHT22;10593;48.398;10.698;2023-05-07T01:29:53;17.80;51.20
20866;DHT22;10593;48.398;10.698;2023-05-07T01:32:35;17.70;51.20
20866;DHT22;10593;48.398;10.698;2023-05-07T01:35:07;17.70;51.20
20866;DHT22;10593;48.398;10.698;2023-05-07T01:37:36;17.70;51.20
20866;DHT22;10593;48.398;10.698;2023-05-07T01:40:04;17.70;51.20
20866;DHT22;10593;48.398;10.698;2023-05-07T01:42:30;17.70;51.30
20866;DHT22;10593;48.398;10.698;2023-05-07T01:44:56;17.60;51.20
20866;DHT22;10593;48.398;10.698;2023-05-07T01:47:23;17.60;51.10
20866;DHT22;10593;48.398;10.698;2023-05-07T01:49:50;17.60;51.10
20866;DHT22;10593;48.398;10.698;2023-05-07T01:52:16;17.60;51.10
20866;DHT22;10593;48.398;10.698;2023-05-07T01:54:41;17.60;51.10
20866;DHT22;10593;48.398;10.698;2023-05-07T01:57:08;17.50;51.00
20866;DHT22;10593;48.398;10.698;2023-05-07T01:59:33;17.50;51.30
20866;DHT22;10593;48.398;10.698;2023-05-07T02:01:59;17.50;51.40
20866;DHT22;10593;48.398;10.698;2023-05-07T02:04:26;17.40;51.40
20866;DHT22;10593;48.398;10.698;2023-05-07T02:06:51;17.40;51.40
20866;DHT22;10593;48.398;10.698;2023-05-07T02:09:18;17.50;51.50
20866;DHT22;10593;48.398;10.698;2023-05-07T02:11:44;17.50;51.60
20866;DHT22;10593;48.398;10.698;2023-05-07T02:14:10;17.50;51.70
20866;DHT22;10593;48.398;10.698;2023-05-07T02:16:36;17.40;52.20
20866;DHT22;10593;48.398;10.698;2023-05-07T02:19:01;17.40;51.60
20866;DHT22;10593;48.398;10.698;2023-05-07T02:21:27;17.40;51.50
20866;DHT22;10593;48.398;10.698;2023-05-07T02:23:53;17.40;51.40
20866;DHT22;10593;48.398;10.698;2023-05-07T02:26:19;17.30;51.30
20866;DHT22;10593;48.398;10.698;2023-05-07T02:28:44;17.30;51.20
20866;DHT22;10593;48.398;10.698;2023-05-07T02:31:10;17.30;51.20
20866;DHT22;10593;48.398;10.698;2023-05-07T02:33:36;17.30;51.30
20866;DHT22;10593;48.398;10.698;2023-05-07T02:36:09;17.30;51.30
20866;DHT22;10593;48.398;10.698;2023-05-07T02:38:35;17.20;51.40
20866;DHT22;10593;48.398;10.698;2023-05-07T02:41:01;17.20;51.40
20866;DHT22;10593;48.398;10.698;2023-05-07T02:43:27;17.20;51.60
20866;DHT22;10593;48.398;10.698;2023-05-07T02:46:07;17.20;51.70
20866;DHT22;10593;48.398;10.698;2023-05-07T02:48:34;17.20;51.80
20866;DHT22;10593;48.398;10.698;2023-05-07T02:51:00;17.10;51.80
20866;DHT22;10593;48.398;10.698;2023-05-07T02:53:26;17.10;51.80
20866;DHT22;10593;48.398;10.698;2023-05-07T02:55:56;17.10;51.80
20866;DHT22;10593;48.398;10.698;2023-05-07T02:58:23;17.10;51.80
20866;DHT22;10593;48.398;10.698;2023-05-07T03:00:49;17.10;51.70
20866;DHT22;10593;48.398;10.698;2023-05-07T03:03:15;17.00;51.60
20866;DHT22;10593;48.398;10.698;2023-05-07T03:05:41;17.10;51.70
20866;DHT22;10593;48.398;10.698;2023-05-07T03:08:07;17.00;51.50
20866;DHT22;10593;48.398;10.698;2023-05-07T03:10:33;17.00;51.60
20866;DHT22;10593;48.398;10.698;2023-05-07T03:13:00;16.90;51.60
20866;DHT22;10593;48.398;10.698;2023-05-07T03:15:26;16.90;51.60
20866;DHT22;10593;48.398;10.698;2023-05-07T03:17:51;16.90;51.60
20866;DHT22;10593;48.398;10.698;2023-05-07T03:20:17;16.90;51.50
20866;DHT22;10593;48.398;10.698;2023-05-07T03:22:43;16.90;51.50
20866;DHT22;10593;48.398;10.698;2023-05-07T03:25:08;16.90;51.60
20866;DHT22;10593;48.398;10.698;2023-05-07T03:27:36;16.90;51.60
20866;DHT22;10593;48.398;10.698;2023-05-07T03:30:02;16.80;51.70
20866;DHT22;10593;48.398;10.698;2023-05-07T03:32:28;16.80;51.90
20866;DHT22;10593;48.398;10.698;2023-05-07T03:34:54;16.80;51.90
20866;DHT22;10593;48.398;10.698;2023-05-07T03:37:21;16.80;52.00
20866;DHT22;10593;48.398;10.698;2023-05-07T03:39:47;16.80;52.10
20866;DHT22;10593;48.398;10.698;2023-05-07T03:42:12;16.80;52.10
20866;DHT22;10593;48.398;10.698;2023-05-07T03:44:38;16.80;52.10
20866;DHT22;10593;48.398;10.698;2023-05-07T03:47:04;16.80;52.10
20866;DHT22;10593;48.398;10.698;2023-05-07T03:49:30;16.80;52.10
20866;DHT22;10593;48.398;10.698;2023-05-07T03:51:55;16.80;52.10
20866;DHT22;10593;48.398;10.698;2023-05-07T03:54:22;16.80;52.10
20866;DHT22;10593;48.398;10.698;2023-05-07T03:56:47;16.80;52.10
20866;DHT22;10593;48.398;10.698;2023-05-07T03:59:13;16.70;52.00
20866;DHT22;10593;48.398;10.698;2023-05-07T04:01:39;16.70;52.00
20866;DHT22;10593;48.398;10.698;2023-05-07T04:04:05;16.80;52.00
20866;DHT22;10593;48.398;10.698;2023-05-07T04:06:31;16.70;51.70
20866;DHT22;10593;48.398;10.698;2023-05-07T04:08:57;16.70;51.30
20866;DHT22;10593;48.398;10.698;2023-05-07T04:11:23;16.70;51.20
20866;DHT22;10593;48.398;10.698;2023-05-07T04:13:49;16.60;51.10
20866;DHT22;10593;48.398;10.698;2023-05-07T04:16:14;16.60;51.20
20866;DHT22;10593;48.398;10.698;2023-05-07T04:18:40;16.60;51.30
20866;DHT22;10593;48.398;10.698;2023-05-07T04:21:17;16.60;51.40
20866;DHT22;10593;48.398;10.698;2023-05-07T04:23:45;16.50;51.50
20866;DHT22;10593;48.398;10.698;2023-05-07T04:26:15;16.50;51.60
20866;DHT22;10593;48.398;10.698;2023-05-07T04:28:41;16.50;51.60
20866;DHT22;10593;48.398;10.698;2023-05-07T04:31:07;16.50;51.80
20866;DHT22;10593;48.398;10.698;2023-05-07T04:33:34;16.50;51.90
20866;DHT22;10593;48.398;10.698;2023-05-07T04:36:03;16.50;52.00
20866;DHT22;10593;48.398;10.698;2023-05-07T04:38:30;16.50;52.20
20866;DHT22;10593;48.398;10.698;2023-05-07T04:40:57;16.50;52.80
20866;DHT22;10593;48.398;10.698;2023-05-07T04:43:32;16.50;52.40
20866;DHT22;10593;48.398;10.698;2023-05-07T04:45:57;16.50;52.60
20866;DHT22;10593;48.398;10.698;2023-05-07T04:48:23;16.60;52.70
20866;DHT22;10593;48.398;10.698;2023-05-07T04:50:50;16.60;52.80
20866;DHT22;10593;48.398;10.698;2023-05-07T04:53:16;16.60;52.90
20866;DHT22;10593;48.398;10.698;2023-05-07T04:55:43;16.60;53.50
20866;DHT22;10593;48.398;10.698;2023-05-07T04:58:10;16.70;53.00
20866;DHT22;10593;48.398;10.698;2023-05-07T05:00:36;16.80;53.10
20866;DHT22;10593;48.398;10.698;2023-05-07T05:03:02;16.80;53.10
20866;DHT22;10593;48.398;10.698;2023-05-07T05:05:27;16.80;53.10
20866;DHT22;10593;48.398;10.698;2023-05-07T05:07:53;16.90;53.10
20866;DHT22;10593;48.398;10.698;2023-05-07T05:10:19;16.90;53.20
20866;DHT22;10593;48.398;10.698;2023-05-07T05:12:44;17.00;53.20
20866;DHT22;10593;48.398;10.698;2023-05-07T05:15:12;17.00;53.10
20866;DHT22;10593;48.398;10.698;2023-05-07T05:17:38;17.10;53.30
20866;DHT22;10593;48.398;10.698;2023-05-07T05:20:05;17.10;53.10
20866;DHT22;10593;48.398;10.698;2023-05-07T05:22:31;17.20;53.30
20866;DHT22;10593;48.398;10.698;2023-05-07T05:24:57;17.30;53.40
20866;DHT22;10593;48.398;10.698;2023-05-07T05:27:23;17.30;53.50
20866;DHT22;10593;48.398;10.698;2023-05-07T05:29:49;17.40;53.70
20866;DHT22;10593;48.398;10.698;2023-05-07T05:32:15;17.50;53.90
20866;DHT22;10593;48.398;10.698;2023-05-07T05:34:40;17.50;53.80
20866;DHT22;10593;48.398;10.698;2023-05-07T05:37:06;17.60;53.80
20866;DHT22;10593;48.398;10.698;2023-05-07T05:39:32;17.70;53.90
20866;DHT22;10593;48.398;10.698;2023-05-07T05:41:58;17.80;54.20
20866;DHT22;10593;48.398;10.698;2023-05-07T05:44:23;17.90;54.40
20866;DHT22;10593;48.398;10.698;2023-05-07T05:46:49;18.00;54.60
20866;DHT22;10593;48.398;10.698;2023-05-07T05:49:15;18.10;54.50
20866;DHT22;10593;48.398;10.698;2023-05-07T05:51:41;18.20;54.50
20866;DHT22;10593;48.398;10.698;2023-05-07T05:54:06;18.30;54.50
20866;DHT22;10593;48.398;10.698;2023-05-07T05:56:32;18.40;54.50
20866;DHT22;10593;48.398;10.698;2023-05-07T05:58:58;18.50;54.60
20866;DHT22;10593;48.398;10.698;2023-05-07T06:01:24;18.60;54.70
20866;DHT22;10593;48.398;10.698;2023-05-07T06:03:50;18.80;55.00
20866;DHT22;10593;48.398;10.698;2023-05-07T06:06:15;18.90;55.30
20866;DHT22;10593;48.398;10.698;2023-05-07T06:08:41;19.00;55.30
20866;DHT22;10593;48.398;10.698;2023-05-07T06:11:07;19.10;55.10
20866;DHT22;10593;48.398;10.698;2023-05-07T06:13:33;19.20;54.60
20866;DHT22;10593;48.398;10.698;2023-05-07T06:15:59;19.40;54.80
20866;DHT22;10593;48.398;10.698;2023-05-07T06:18:24;19.50;54.70
20866;DHT22;10593;48.398;10.698;2023-05-07T06:20:51;19.60;54.30
20866;DHT22;10593;48.398;10.698;2023-05-07T06:23:17;19.60;54.20
20866;DHT22;10593;48.398;10.698;2023-05-07T06:25:49;19.80;53.80
20866;DHT22;10593;48.398;10.698;2023-05-07T06:28:15;19.80;53.30
20866;DHT22;10593;48.398;10.698;2023-05-07T06:30:41;19.90;53.30
20866;DHT22;10593;48.398;10.698;2023-05-07T06:33:07;20.00;53.10
20866;DHT22;10593;48.398;10.698;2023-05-07T06:35:33;20.10;53.00
20866;DHT22;10593;48.398;10.698;2023-05-07T06:37:59;20.20;53.00
20866;DHT22;10593;48.398;10.698;2023-05-07T06:40:25;20.30;52.60
20866;DHT22;10593;48.398;10.698;2023-05-07T06:42:51;20.30;51.90
20866;DHT22;10593;48.398;10.698;2023-05-07T06:45:17;20.40;52.20
20866;DHT22;10593;48.398;10.698;2023-05-07T06:47:42;20.40;51.50
20866;DHT22;10593;48.398;10.698;2023-05-07T06:50:08;20.50;51.50
20866;DHT22;10593;48.398;10.698;2023-05-07T06:52:35;20.40;51.20
20866;DHT22;10593;48.398;10.698;2023-05-07T06:55:01;20.50;51.40
20866;DHT22;10593;48.398;10.698;2023-05-07T06:57:26;20.50;51.40
20866;DHT22;10593;48.398;10.698;2023-05-07T06:59:52;20.50;52.20
20866;DHT22;10593;48.398;10.698;2023-05-07T07:02:18;20.60;52.00
20866;DHT22;10593;48.398;10.698;2023-05-07T07:04:43;20.60;51.90
20866;DHT22;10593;48.398;10.698;2023-05-07T07:07:10;20.70;51.80
20866;DHT22;10593;48.398;10.698;2023-05-07T07:09:36;20.70;51.70
20866;DHT22;10593;48.398;10.698;2023-05-07T07:12:01;20.70;51.80
20866;DHT22;10593;48.398;10.698;2023-05-07T07:14:27;20.80;52.00
20866;DHT22;10593;48.398;10.698;2023-05-07T07:16:53;20.80;51.80
20866;DHT22;10593;48.398;10.698;2023-05-07T07:19:18;20.80;51.40
20866;DHT22;10593;48.398;10.698;2023-05-07T07:21:45;20.90;51.80
20866;DHT22;10593;48.398;10.698;2023-05-07T07:24:11;20.90;52.10
20866;DHT22;10593;48.398;10.698;2023-05-07T07:26:38;20.80;51.50
20866;DHT22;10593;48.398;10.698;2023-05-07T07:29:05;20.90;51.40
20866;DHT22;10593;48.398;10.698;2023-05-07T07:31:32;20.90;51.60
20866;DHT22;10593;48.398;10.698;2023-05-07T07:33:57;20.90;51.50
20866;DHT22;10593;48.398;10.698;2023-05-07T07:36:23;20.90;51.50
20866;DHT22;10593;48.398;10.698;2023-05-07T07:38:49;20.90;51.70
20866;DHT22;10593;48.398;10.698;2023-05-07T07:41:14;21.00;51.80
20866;DHT22;10593;48.398;10.698;2023-05-07T07:43:40;21.00;51.50
20866;DHT22;10593;48.398;10.698;2023-05-07T07:46:06;21.00;51.50
20866;DHT22;10593;48.398;10.698;2023-05-07T07:48:31;21.00;51.30
20866;DHT22;10593;48.398;10.698;2023-05-07T07:50:57;21.00;51.10
20866;DHT22;10593;48.398;10.698;2023-05-07T07:53:23;21.00;51.10
20866;DHT22;10593;48.398;10.698;2023-05-07T07:55:48;21.00;51.10
20866;DHT22;10593;48.398;10.698;2023-05-07T07:58:14;21.00;51.20
20866;DHT22;10593;48.398;10.698;2023-05-07T08:00:40;21.00;51.60
20866;DHT22;10593;48.398;10.698;2023-05-07T08:03:06;21.00;52.00
20866;DHT22;10593;48.398;10.698;2023-05-07T08:05:34;21.10;52.00
20866;DHT22;10593;48.398;10.698;2023-05-07T08:08:00;21.10;52.00
20866;DHT22;10593;48.398;10.698;2023-05-07T08:10:26;21.20;51.60
20866;DHT22;10593;48.398;10.698;2023-05-07T08:12:52;21.20;51.40
20866;DHT22;10593;48.398;10.698;2023-05-07T08:15:18;21.30;50.90
20866;DHT22;10593;48.398;10.698;2023-05-07T08:17:44;21.40;51.00
20866;DHT22;10593;48.398;10.698;2023-05-07T08:20:09;21.40;51.10
20866;DHT22;10593;48.398;10.698;2023-05-07T08:22:36;21.40;50.90
20866;DHT22;10593;48.398;10.698;2023-05-07T08:25:02;21.50;50.70
20866;DHT22;10593;48.398;10.698;2023-05-07T08:27:28;21.50;50.70
20866;DHT22;10593;48.398;10.698;2023-05-07T08:29:54;21.50;50.60
20866;DHT22;10593;48.398;10.698;2023-05-07T08:32:20;21.50;50.40
20866;DHT22;10593;48.398;10.698;2023-05-07T08:34:46;21.60;50.70
20866;DHT22;10593;48.398;10.698;2023-05-07T08:37:13;21.60;50.10
20866;DHT22;10593;48.398;10.698;2023-05-07T08:39:38;21.60;49.80
20866;DHT22;10593;48.398;10.698;2023-05-07T08:42:04;21.60;49.50
20866;DHT22;10593;48.398;10.698;2023-05-07T08:44:34;21.60;49.50
20866;DHT22;10593;48.398;10.698;2023-05-07T08:47:03;21.60;50.00
20866;DHT22;10593;48.398;10.698;2023-05-07T08:49:33;21.70;50.70
20866;DHT22;10593;48.398;10.698;2023-05-07T08:51:59;21.60;50.80
20866;DHT22;10593;48.398;10.698;2023-05-07T08:54:26;21.70;50.70
20866;DHT22;10593;48.398;10.698;2023-05-07T08:56:53;21.70;50.90
20866;DHT22;10593;48.398;10.698;2023-05-07T08:59:18;21.80;50.90
20866;DHT22;10593;48.398;10.698;2023-05-07T09:01:44;21.80;51.10
20866;DHT22;10593;48.398;10.698;2023-05-07T09:04:10;21.80;51.20
20866;DHT22;10593;48.398;10.698;2023-05-07T09:06:35;21.90;51.40
20866;DHT22;10593;48.398;10.698;2023-05-07T09:09:03;21.90;50.90
20866;DHT22;10593;48.398;10.698;2023-05-07T09:11:31;21.90;50.70
20866;DHT22;10593;48.398;10.698;2023-05-07T09:13:57;22.00;50.90
20866;DHT22;10593;48.398;10.698;2023-05-07T09:16:28;22.00;51.10
20866;DHT22;10593;48.398;10.698;2023-05-07T09:18:58;22.00;50.10
20866;DHT22;10593;48.398;10.698;2023-05-07T09:21:25;22.10;50.00
20866;DHT22;10593;48.398;10.698;2023-05-07T09:23:52;22.10;49.40
20866;DHT22;10593;48.398;10.698;2023-05-07T09:26:23;22.20;49.60
20866;DHT22;10593;48.398;10.698;2023-05-07T09:28:50;22.10;49.30
20866;DHT22;10593;48.398;10.698;2023-05-07T09:31:17;22.20;48.90
20866;DHT22;10593;48.398;10.698;2023-05-07T09:33:43;22.20;49.00
20866;DHT22;10593;48.398;10.698;2023-05-07T09:36:09;22.20;48.60
20866;DHT22;10593;48.398;10.698;2023-05-07T09:38:36;22.20;48.40
20866;DHT22;10593;48.398;10.698;2023-05-07T09:41:06;22.20;48.10
20866;DHT22;10593;48.398;10.698;2023-05-07T09:43:38;22.20;48.10
20866;DHT22;10593;48.398;10.698;2023-05-07T09:46:14;22.20;48.70
20866;DHT22;10593;48.398;10.698;2023-05-07T09:48:43;22.30;49.00
20866;DHT22;10593;48.398;10.698;2023-05-07T09:51:34;22.30;48.50
20866;DHT22;10593;48.398;10.698;2023-05-07T09:54:09;22.30;47.90
20866;DHT22;10593;48.398;10.698;2023-05-07T09:56:35;22.40;47.50
20866;DHT22;10593;48.398;10.698;2023-05-07T09:59:03;22.40;47.70
20866;DHT22;10593;48.398;10.698;2023-05-07T10:01:33;22.40;47.30
20866;DHT22;10593;48.398;10.698;2023-05-07T10:04:02;22.40;47.60
20866;DHT22;10593;48.398;10.698;2023-05-07T10:06:30;22.40;47.50
20866;DHT22;10593;48.398;10.698;2023-05-07T10:08:56;22.50;47.30
20866;DHT22;10593;48.398;10.698;2023-05-07T10:11:22;22.50;47.50
20866;DHT22;10593;48.398;10.698;2023-05-07T10:13:48;22.50;48.00
20866;DHT22;10593;48.398;10.698;2023-05-07T10:16:14;22.60;47.60
20866;DHT22;10593;48.398;10.698;2023-05-07T10:18:41;22.60;46.60
20866;DHT22;10593;48.398;10.698;2023-05-07T10:21:11;22.60;46.10
20866;DHT22;10593;48.398;10.698;2023-05-07T10:23:55;22.60;45.60
20866;DHT22;10593;48.398;10.698;2023-05-07T10:26:25;22.60;45.00
20866;DHT22;10593;48.398;10.698;2023-05-07T10:29:01;22.60;45.20
20866;DHT22;10593;48.398;10.698;2023-05-07T10:31:58;22.60;45.00
20866;DHT22;10593;48.398;10.698;2023-05-07T10:34:39;22.60;44.50
20866;DHT22;10593;48.398;10.698;2023-05-07T10:37:09;22.60;44.60
20866;DHT22;10593;48.398;10.698;2023-05-07T10:39:37;22.60;45.00
20866;DHT22;10593;48.398;10.698;2023-05-07T10:42:13;22.60;45.40
20866;DHT22;10593;48.398;10.698;2023-05-07T10:44:40;22.60;45.60
20866;DHT22;10593;48.398;10.698;2023-05-07T10:47:14;22.60;45.70
20866;DHT22;10593;48.398;10.698;2023-05-07T10:52:22;22.60;45.60
20866;DHT22;10593;48.398;10.698;2023-05-07T10:55:18;22.60;46.10
20866;DHT22;10593;48.398;10.698;2023-05-07T10:57:47;22.60;45.80
20866;DHT22;10593;48.398;10.698;2023-05-07T11:05:25;22.80;45.80
20866;DHT22;10593;48.398;10.698;2023-05-07T11:08:03;22.80;45.80
20866;DHT22;10593;48.398;10.698;2023-05-07T11:10:55;22.80;45.40
20866;DHT22;10593;48.398;10.698;2023-05-07T11:16:19;22.90;44.80
20866;DHT22;10593;48.398;10.698;2023-05-07T11:18:55;22.90;44.80
20866;DHT22;10593;48.398;10.698;2023-05-07T11:21:54;22.90;45.10
20866;DHT22;10593;48.398;10.698;2023-05-07T11:24:20;22.90;46.00
20866;DHT22;10593;48.398;10.698;2023-05-07T11:26:50;23.00;46.30
20866;DHT22;10593;48.398;10.698;2023-05-07T11:29:19;23.00;44.90
20866;DHT22;10593;48.398;10.698;2023-05-07T11:31:50;23.10;45.30
20866;DHT22;10593;48.398;10.698;2023-05-07T11:34:24;23.10;45.00
20866;DHT22;10593;48.398;10.698;2023-05-07T11:36:51;23.10;45.40
20866;DHT22;10593;48.398;10.698;2023-05-07T11:39:32;23.20;45.10
20866;DHT22;10593;48.398;10.698;2023-05-07T11:42:02;23.20;44.70
20866;DHT22;10593;48.398;10.698;2023-05-07T11:44:46;23.20;44.00
20866;DHT22;10593;48.398;10.698;2023-05-07T11:47:20;23.20;45.10
20866;DHT22;10593;48.398;10.698;2023-05-07T11:49:48;23.20;43.30
20866;DHT22;10593;48.398;10.698;2023-05-07T11:52:15;23.30;44.70
20866;DHT22;10593;48.398;10.698;2023-05-07T11:54:44;23.30;44.50
20866;DHT22;10593;48.398;10.698;2023-05-07T11:57:17;23.30;44.90
20866;DHT22;10593;48.398;10.698;2023-05-07T11:59:43;23.30;45.10
20866;DHT22;10593;48.398;10.698;2023-05-07T12:02:17;23.30;44.00
20866;DHT22;10593;48.398;10.698;2023-05-07T12:04:44;23.40;44.80
20866;DHT22;10593;48.398;10.698;2023-05-07T12:07:14;23.40;45.20
20866;DHT22;10593;48.398;10.698;2023-05-07T12:09:44;23.40;45.60
20866;DHT22;10593;48.398;10.698;2023-05-07T12:12:11;23.40;46.00
20866;DHT22;10593;48.398;10.698;2023-05-07T12:14:39;23.40;45.80
20866;DHT22;10593;48.398;10.698;2023-05-07T12:17:07;23.40;44.70
20866;DHT22;10593;48.398;10.698;2023-05-07T12:19:37;23.50;44.00
20866;DHT22;10593;48.398;10.698;2023-05-07T12:22:05;23.50;44.10
20866;DHT22;10593;48.398;10.698;2023-05-07T12:25:01;23.50;44.70
20866;DHT22;10593;48.398;10.698;2023-05-07T12:27:28;23.50;44.70
20866;DHT22;10593;48.398;10.698;2023-05-07T12:29:54;23.50;43.90
20866;DHT22;10593;48.398;10.698;2023-05-07T12:32:21;23.60;43.60
20866;DHT22;10593;48.398;10.698;2023-05-07T12:34:50;23.60;42.70
20866;DHT22;10593;48.398;10.698;2023-05-07T12:37:16;23.60;42.30
20866;DHT22;10593;48.398;10.698;2023-05-07T12:39:49;23.50;42.70
20866;DHT22;10593;48.398;10.698;2023-05-07T12:42:36;23.60;43.50
20866;DHT22;10593;48.398;10.698;2023-05-07T12:45:12;23.60;42.50
20866;DHT22;10593;48.398;10.698;2023-05-07T12:47:46;23.60;42.40
20866;DHT22;10593;48.398;10.698;2023-05-07T12:50:13;23.60;42.40
20866;DHT22;10593;48.398;10.698;2023-05-07T12:52:40;23.60;42.60
20866;DHT22;10593;48.398;10.698;2023-05-07T12:55:07;23.60;43.50
20866;DHT22;10593;48.398;10.698;2023-05-07T12:57:43;23.60;43.60
20866;DHT22;10593;48.398;10.698;2023-05-07T13:00:13;23.60;43.60
20866;DHT22;10593;48.398;10.698;2023-05-07T13:02:41;23.60;42.70
20866;DHT22;10593;48.398;10.698;2023-05-07T13:05:10;23.60;43.00
20866;DHT22;10593;48.398;10.698;2023-05-07T13:07:36;23.60;43.10
20866;DHT22;10593;48.398;10.698;2023-05-07T13:10:03;23.60;43.40
20866;DHT22;10593;48.398;10.698;2023-05-07T13:12:29;23.70;43.50
20866;DHT22;10593;48.398;10.698;2023-05-07T13:14:55;23.70;43.00
20866;DHT22;10593;48.398;10.698;2023-05-07T13:17:21;23.60;43.00
20866;DHT22;10593;48.398;10.698;2023-05-07T13:19:47;23.70;42.60
20866;DHT22;10593;48.398;10.698;2023-05-07T13:22:12;23.70;42.60
20866;DHT22;10593;48.398;10.698;2023-05-07T13:24:38;23.70;42.50
20866;DHT22;10593;48.398;10.698;2023-05-07T13:27:06;23.70;43.10
20866;DHT22;10593;48.398;10.698;2023-05-07T13:29:32;23.70;43.10
20866;DHT22;10593;48.398;10.698;2023-05-07T13:31:58;23.70;43.10
20866;DHT22;10593;48.398;10.698;2023-05-07T13:34:24;23.70;43.60
20866;DHT22;10593;48.398;10.698;2023-05-07T13:36:50;23.70;44.00
20866;DHT22;10593;48.398;10.698;2023-05-07T13:39:15;23.70;43.70
20866;DHT22;10593;48.398;10.698;2023-05-07T13:41:41;23.70;43.70
20866;DHT22;10593;48.398;10.698;2023-05-07T13:44:07;23.70;44.30
20866;DHT22;10593;48.398;10.698;2023-05-07T13:46:33;23.70;44.30
20866;DHT22;10593;48.398;10.698;2023-05-07T13:48:58;23.70;44.30
20866;DHT22;10593;48.398;10.698;2023-05-07T13:51:24;23.70;44.60
20866;DHT22;10593;48.398;10.698;2023-05-07T13:53:51;23.70;43.70
20866;DHT22;10593;48.398;10.698;2023-05-07T13:56:17;23.70;43.90
20866;DHT22;10593;48.398;10.698;2023-05-07T13:58:43;23.70;44.30
20866;DHT22;10593;48.398;10.698;2023-05-07T14:01:09;23.80;44.50
20866;DHT22;10593;48.398;10.698;2023-05-07T14:03:34;23.80;44.50
20866;DHT22;10593;48.398;10.698;2023-05-07T14:06:03;23.80;44.00
20866;DHT22;10593;48.398;10.698;2023-05-07T14:08:29;23.80;44.00
20866;DHT22;10593;48.398;10.698;2023-05-07T14:10:55;23.80;44.20
20866;DHT22;10593;48.398;10.698;2023-05-07T14:13:20;23.80;44.70
20866;DHT22;10593;48.398;10.698;2023-05-07T14:15:46;23.80;44.60
20866;DHT22;10593;48.398;10.698;2023-05-07T14:18:13;23.80;44.10
20866;DHT22;10593;48.398;10.698;2023-05-07T14:20:39;23.80;43.80
20866;DHT22;10593;48.398;10.698;2023-05-07T14:23:05;23.80;43.00
20866;DHT22;10593;48.398;10.698;2023-05-07T14:25:30;23.90;42.40
20866;DHT22;10593;48.398;10.698;2023-05-07T14:27:56;23.90;42.00
20866;DHT22;10593;48.398;10.698;2023-05-07T14:30:22;23.90;42.00
20866;DHT22;10593;48.398;10.698;2023-05-07T14:32:50;23.90;41.90
20866;DHT22;10593;48.398;10.698;2023-05-07T14:35:16;23.80;42.00
20866;DHT22;10593;48.398;10.698;2023-05-07T14:37:42;23.90;42.50
20866;DHT22;10593;48.398;10.698;2023-05-07T14:40:09;23.90;42.00
20866;DHT22;10593;48.398;10.698;2023-05-07T14:42:35;23.80;41.50
20866;DHT22;10593;48.398;10.698;2023-05-07T14:45:01;23.80;41.80
20866;DHT22;10593;48.398;10.698;2023-05-07T14:47:27;23.80;42.00
20866;DHT22;10593;48.398;10.698;2023-05-07T14:49:53;23.80;42.50
20866;DHT22;10593;48.398;10.698;2023-05-07T14:52:19;23.80;42.70
20866;DHT22;10593;48.398;10.698;2023-05-07T14:54:45;23.80;42.50
20866;DHT22;10593;48.398;10.698;2023-05-07T14:57:12;23.80;42.70
20866;DHT22;10593;48.398;10.698;2023-05-07T14:59:41;23.80;43.20
20866;DHT22;10593;48.398;10.698;2023-05-07T15:02:07;23.80;43.50
20866;DHT22;10593;48.398;10.698;2023-05-07T15:04:36;23.90;43.70
20866;DHT22;10593;48.398;10.698;2023-05-07T15:07:03;23.90;43.00
20866;DHT22;10593;48.398;10.698;2023-05-07T15:09:29;23.80;43.10
20866;DHT22;10593;48.398;10.698;2023-05-07T15:11:55;23.80;42.80
20866;DHT22;10593;48.398;10.698;2023-05-07T15:14:21;23.90;43.10
20866;DHT22;10593;48.398;10.698;2023-05-07T15:16:48;23.90;43.40
20866;DHT22;10593;48.398;10.698;2023-05-07T15:19:13;23.90;43.90
20866;DHT22;10593;48.398;10.698;2023-05-07T15:21:41;23.80;44.10
20866;DHT22;10593;48.398;10.698;2023-05-07T15:24:07;23.90;43.50
20866;DHT22;10593;48.398;10.698;2023-05-07T15:26:34;23.80;43.10
20866;DHT22;10593;48.398;10.698;2023-05-07T15:28:59;23.80;43.10